createdAt,value
2023-03-10T00:00:14.374Z,13.57
2023-03-10T00:04:20.744Z,15.25
2023-03-10T00:08:27.136Z,17.13
2023-03-10T00:12:29.468Z,18.73
2023-03-10T00:16:31.687Z,10.43
2023-03-10T00:20:33.855Z,14.30
2023-03-10T00:24:36.189Z,14.82
2023-03-10T00:28:38.982Z,10.52
2023-03-10T00:32:41.229Z,11.50
2023-03-10T00:36:43.462Z,12.80
2023-03-10T00:40:45.924Z,10.57
2023-03-10T00:44:48.620Z,7.95
2023-03-10T00:48:51.425Z,13.15
2023-03-10T00:52:54.162Z,16.05
2023-03-10T00:56:56.518Z,14.52
2023-03-10T01:00:59.655Z,13.23
2023-03-10T01:05:02.093Z,17.27
2023-03-10T01:09:06.722Z,12.05
2023-03-10T01:13:11.773Z,9.70
2023-03-10T01:17:13.958Z,20.42
2023-03-10T01:21:20.458Z,13.57
2023-03-10T01:25:22.627Z,15.57
2023-03-10T01:29:24.859Z,11.18
2023-03-10T01:33:27.361Z,15.02
2023-03-10T01:37:29.582Z,13.48
2023-03-10T01:41:31.806Z,14.32
2023-03-10T01:45:34.289Z,14.63
2023-03-10T01:49:40.766Z,11.68
2023-03-10T01:53:43.406Z,18.15
2023-03-10T01:57:52.679Z,13.68
2023-03-10T02:01:57.125Z,15.98
2023-03-10T02:06:09.296Z,13.40
2023-03-10T02:10:14.825Z,15.57
2023-03-10T02:14:18.606Z,14.67
2023-03-10T02:18:22.380Z,12.95
2023-03-10T02:22:24.626Z,14.85
2023-03-10T02:26:35.720Z,12.60
2023-03-10T02:30:41.494Z,12.48
2023-03-10T02:34:44.248Z,16.23
2023-03-10T02:38:46.894Z,16.48
2023-03-10T02:42:49.040Z,25.20
2023-03-10T02:46:51.741Z,15.27
2023-03-10T02:50:55.100Z,18.27
2023-03-10T02:54:58.121Z,13.80
2023-03-10T02:59:03.461Z,11.27
2023-03-10T03:03:08.748Z,15.05
2023-03-10T03:07:11.304Z,12.77
2023-03-10T03:11:19.539Z,13.75
2023-03-10T03:15:24.168Z,11.32
2023-03-10T03:19:29.471Z,11.90
2023-03-10T03:23:33.780Z,8.63
2023-03-10T03:27:37.493Z,7.88
2023-03-10T03:31:41.092Z,10.63
2023-03-10T03:35:48.290Z,7.15
2023-03-10T03:39:52.900Z,12.45
2023-03-10T03:43:55.089Z,9.35
2023-03-10T03:47:57.682Z,11.63
2023-03-10T03:52:01.477Z,9.20
2023-03-10T03:56:04.517Z,8.73
2023-03-10T04:00:12.994Z,7.95
2023-03-10T04:04:20.033Z,8.65
2023-03-10T04:08:24.282Z,5.35
2023-03-10T04:12:27.732Z,8.20
2023-03-10T04:16:29.889Z,7.95
2023-03-10T04:20:32.308Z,10.73
2023-03-10T04:24:34.411Z,9.40
2023-03-10T04:28:37.799Z,8.40
2023-03-10T04:32:40.892Z,8.55
2023-03-10T04:36:44.287Z,9.07
2023-03-10T04:40:53.733Z,11.75
2023-03-10T04:44:56.233Z,13.30
2023-03-10T04:48:59.176Z,12.20
2023-03-10T04:53:01.366Z,13.05
2023-03-10T04:57:05.875Z,9.07
2023-03-10T05:01:14.127Z,8.85
2023-03-10T05:05:23.936Z,14.55
2023-03-10T05:09:26.764Z,6.78
2023-03-10T05:13:31.730Z,12.13
2023-03-10T05:17:34.683Z,10.27
2023-03-10T05:21:37.861Z,8.57
2023-03-10T05:25:40.427Z,6.75
2023-03-10T05:29:42.561Z,10.43
2023-03-10T05:33:53.676Z,7.07
2023-03-10T05:37:56.567Z,9.93
2023-03-10T05:41:58.850Z,12.25
2023-03-10T05:46:04.678Z,11.43
2023-03-10T05:50:10.767Z,9.48
2023-03-10T05:54:12.921Z,13.32
2023-03-10T05:58:15.045Z,7.90
2023-03-10T06:02:17.076Z,16.02
2023-03-10T06:06:19.208Z,11.15
2023-03-10T06:10:21.336Z,11.05
2023-03-10T06:19:07.585Z,9.55
2023-03-10T06:23:09.998Z,13.65
2023-03-10T06:27:12.176Z,8.88
2023-03-10T06:31:20.675Z,11.75
2023-03-10T06:35:23.017Z,9.40
2023-03-10T06:39:29.076Z,9.57
2023-03-10T06:43:32.506Z,7.80
2023-03-10T06:47:35.440Z,10.20
2023-03-10T06:51:40.036Z,12.45
2023-03-10T06:55:47.487Z,12.48
2023-03-10T06:59:50.696Z,9.02
2023-03-10T07:03:54.549Z,7.18
2023-03-10T07:07:56.939Z,8.97
2023-03-10T07:12:02.699Z,11.15
2023-03-10T07:16:19.133Z,13.77
2023-03-10T07:20:24.854Z,15.43
2023-03-10T07:24:27.979Z,13.02
2023-03-10T07:28:31.786Z,17.92
2023-03-10T07:32:39.385Z,12.73
2023-03-10T07:36:47.051Z,16.67
2023-03-10T07:40:52.187Z,13.98
2023-03-10T07:45:00.189Z,15.45
2023-03-10T07:49:05.103Z,13.85
2023-03-10T07:53:07.215Z,13.38
2023-03-10T07:57:09.402Z,10.65
2023-03-10T08:01:17.666Z,11.20
2023-03-10T08:05:19.814Z,10.05
2023-03-10T08:09:21.855Z,8.57
2023-03-10T08:13:23.911Z,8.40
2023-03-10T08:17:30.908Z,10.73
2023-03-10T08:21:33.173Z,9.40
2023-03-10T08:25:35.543Z,10.32
2023-03-10T08:29:37.806Z,7.53
2023-03-10T08:33:41.536Z,8.27
2023-03-10T08:37:45.139Z,6.13
2023-03-10T08:41:49.475Z,11.57
2023-03-10T08:45:56.328Z,10.70
2023-03-10T08:49:58.917Z,14.48
2023-03-10T08:54:01.336Z,13.50
2023-03-10T08:58:03.820Z,7.43
2023-03-10T09:02:06.741Z,8.77
2023-03-10T09:06:11.632Z,11.85
2023-03-10T09:14:17.587Z,6.93
2023-03-10T09:18:21.786Z,7.68
2023-03-10T09:22:24.117Z,11.00
2023-03-10T09:26:26.589Z,10.32
2023-03-10T09:30:31.131Z,10.55
2023-03-10T09:34:34.609Z,10.80
2023-03-10T09:38:37.504Z,11.35
2023-03-10T09:42:43.259Z,9.70
2023-03-10T09:46:57.129Z,11.60
2023-03-10T09:51:05.983Z,12.48
2023-03-10T09:55:16.769Z,8.65
2023-03-10T09:59:37.693Z,7.07
2023-03-10T10:03:52.516Z,9.02
2023-03-10T10:07:59.001Z,7.60
2023-03-10T10:12:15.166Z,9.60
2023-03-10T10:16:33.649Z,3.42
2023-03-10T10:20:54.093Z,4.57
2023-03-10T10:25:10.168Z,6.38
2023-03-10T10:29:39.462Z,5.00
2023-03-10T10:33:56.128Z,5.05
2023-03-10T10:38:03.980Z,2.47
2023-03-10T10:42:24.941Z,4.95
2023-03-10T10:46:30.660Z,3.47
2023-03-10T10:50:36.191Z,2.60
2023-03-10T10:58:46.123Z,6.18
2023-03-10T11:02:49.044Z,4.45
2023-03-10T11:06:53.750Z,7.35
2023-03-10T11:11:04.613Z,3.83
2023-03-10T11:15:09.898Z,3.20
2023-03-10T11:19:21.553Z,6.47
2023-03-10T11:23:53.754Z,4.50
2023-03-10T11:28:23.257Z,7.65
2023-03-10T11:32:29.607Z,7.22
2023-03-10T11:36:57.345Z,8.05
2023-03-10T11:41:06.672Z,8.75
2023-03-10T11:45:53.689Z,5.15
2023-03-10T11:50:34.727Z,6.72
2023-03-10T11:54:45.460Z,7.30
2023-03-10T11:58:51.749Z,11.98
2023-03-10T12:03:12.170Z,7.07
2023-03-10T12:07:21.820Z,8.50
2023-03-10T12:11:27.259Z,13.10
2023-03-10T12:15:37.027Z,8.82
2023-03-10T12:20:13.526Z,10.27
2023-03-10T12:24:45.186Z,7.75
2023-03-10T12:28:47.344Z,9.23
2023-03-10T12:32:49.688Z,9.85
2023-03-10T12:36:54.178Z,8.48
2023-03-10T12:40:57.276Z,6.65
2023-03-10T12:45:31.570Z,7.65
2023-03-10T12:49:56.993Z,7.07
2023-03-10T12:54:29.133Z,7.13
2023-03-10T12:58:31.228Z,9.07
2023-03-10T13:02:44.411Z,7.95
2023-03-10T13:06:48.693Z,7.50
2023-03-10T13:10:56.435Z,9.50
2023-03-10T13:15:00.887Z,8.60
2023-03-10T13:19:04.558Z,5.93
2023-03-10T13:23:18.315Z,11.33
2023-03-10T13:27:20.789Z,14.10
2023-03-10T13:31:28.362Z,13.93
2023-03-10T13:35:36.108Z,16.20
2023-03-10T13:39:38.387Z,13.07
2023-03-10T13:43:42.954Z,16.05
2023-03-10T13:47:45.136Z,10.73
2023-03-10T13:52:05.782Z,19.80
2023-03-10T13:56:21.831Z,13.90
2023-03-10T14:00:26.293Z,10.32
2023-03-10T14:04:48.328Z,15.52
2023-03-10T14:08:51.692Z,13.32
2023-03-10T14:12:54.670Z,13.23
2023-03-10T14:16:59.235Z,16.45
2023-03-10T14:21:31.303Z,9.45
2023-03-10T14:25:33.628Z,14.73
2023-03-10T14:29:35.803Z,16.73
2023-03-10T14:33:37.947Z,18.40
2023-03-10T14:37:40.187Z,11.65
2023-03-10T14:41:42.564Z,13.07
2023-03-10T14:45:46.685Z,16.42
2023-03-10T14:53:53.204Z,28.15
2023-03-10T15:02:29.407Z,11.95
2023-03-10T15:06:32.061Z,14.82
2023-03-10T15:10:49.202Z,13.75
2023-03-10T15:14:54.171Z,14.43
2023-03-10T15:18:56.612Z,14.77
2023-03-10T15:22:59.152Z,15.15
2023-03-10T15:27:01.887Z,16.55
2023-03-10T15:31:08.158Z,18.55
2023-03-10T15:35:12.449Z,14.25
2023-03-10T15:39:31.437Z,16.50
2023-03-10T15:43:37.768Z,31.10
2023-03-10T15:47:40.446Z,28.35
2023-03-10T15:51:42.621Z,22.63
2023-03-10T15:55:44.959Z,15.30
2023-03-10T15:59:47.413Z,19.38
2023-03-10T16:03:49.572Z,24.65
2023-03-10T16:07:52.214Z,19.83
2023-03-10T16:11:54.758Z,17.13
2023-03-10T16:15:58.493Z,17.33
2023-03-10T16:20:06.989Z,16.38
2023-03-10T16:24:09.415Z,22.45
2023-03-10T16:28:12.266Z,17.20
2023-03-10T16:32:15.164Z,25.52
2023-03-10T16:36:20.996Z,18.52
2023-03-10T16:40:23.973Z,20.45
2023-03-10T16:44:26.895Z,19.95
2023-03-10T16:48:30.085Z,21.73
2023-03-10T16:52:40.200Z,24.73
2023-03-10T16:56:45.348Z,29.17
2023-03-10T17:00:47.896Z,19.98
2023-03-10T17:04:53.962Z,18.75
2023-03-10T17:08:58.270Z,18.17
2023-03-10T17:13:00.728Z,21.13
2023-03-10T17:17:03.662Z,17.45
2023-03-10T17:21:21.947Z,22.15
2023-03-10T17:25:25.010Z,24.33
2023-03-10T17:29:28.361Z,18.20
2023-03-10T17:33:36.105Z,22.45
2023-03-10T17:37:38.743Z,25.25
2023-03-10T17:41:41.920Z,13.35
2023-03-10T17:45:45.037Z,22.35
2023-03-10T17:49:47.930Z,17.98
2023-03-10T17:53:53.528Z,19.17
2023-03-10T17:57:59.323Z,20.15
2023-03-10T18:02:03.977Z,13.82
2023-03-10T18:06:13.765Z,20.67
2023-03-10T18:10:22.844Z,17.67
2023-03-10T18:14:26.288Z,19.55
2023-03-10T18:18:31.145Z,20.27
2023-03-10T18:22:39.899Z,19.92
2023-03-10T18:26:46.441Z,18.35
2023-03-10T18:30:53.251Z,25.35
2023-03-10T18:35:00.139Z,24.15
2023-03-10T18:39:04.097Z,25.50
2023-03-10T18:43:06.745Z,22.02
2023-03-10T18:47:08.840Z,24.85
2023-03-10T18:51:13.501Z,18.30
2023-03-10T18:55:16.739Z,21.00
2023-03-10T18:59:19.550Z,20.45
2023-03-10T19:03:22.347Z,19.58
2023-03-10T19:07:25.571Z,33.25
2023-03-10T19:11:35.576Z,25.65
2023-03-10T19:15:38.841Z,18.65
2023-03-10T19:19:41.726Z,24.35
2023-03-10T19:23:45.750Z,19.50
2023-03-10T19:27:49.542Z,20.85
2023-03-10T19:31:51.916Z,23.55
2023-03-10T19:36:02.220Z,25.77
2023-03-10T19:40:08.481Z,27.95
2023-03-10T19:44:10.996Z,22.58
2023-03-10T19:48:14.384Z,25.37
2023-03-10T19:52:18.117Z,24.98
2023-03-10T19:56:21.987Z,24.67
2023-03-10T20:00:31.175Z,23.15
2023-03-10T20:04:35.451Z,26.30
2023-03-10T20:08:38.353Z,31.00
2023-03-10T20:12:40.765Z,29.60
2023-03-10T20:16:43.251Z,22.55
2023-03-10T20:20:45.522Z,19.80
2023-03-10T20:24:47.840Z,28.58
2023-03-10T20:28:50.653Z,28.05
2023-03-10T20:32:56.663Z,33.08
2023-03-10T20:37:01.951Z,29.90
2023-03-10T20:41:05.926Z,19.52
2023-03-10T20:45:10.428Z,20.95
2023-03-10T20:49:12.881Z,30.13
2023-03-10T20:53:15.278Z,16.63
2023-03-10T20:57:17.571Z,29.27
2023-03-10T21:01:21.847Z,35.83
2023-03-10T21:09:27.772Z,27.85
2023-03-10T21:13:30.855Z,32.28
2023-03-10T21:17:33.496Z,27.38
2023-03-10T21:21:36.872Z,34.33
2023-03-10T21:25:40.537Z,26.33
2023-03-10T21:29:43.281Z,31.58
2023-03-10T21:33:45.736Z,25.58
2023-03-10T21:37:48.595Z,22.02
2023-03-10T21:41:51.124Z,22.38
2023-03-10T21:45:53.436Z,34.33
2023-03-10T21:49:55.880Z,26.50
2023-03-10T21:53:58.342Z,28.38
2023-03-10T21:58:01.463Z,20.42
2023-03-10T22:02:04.161Z,26.65
2023-03-10T22:06:06.564Z,23.48
2023-03-10T22:10:09.618Z,30.73
2023-03-10T22:14:12.015Z,26.77
2023-03-10T22:18:14.325Z,22.85
2023-03-10T22:22:16.893Z,28.23
2023-03-10T22:26:19.331Z,28.35
2023-03-10T22:30:24.431Z,25.58
2023-03-10T22:34:27.207Z,26.73
2023-03-10T22:38:29.662Z,31.55
2023-03-10T22:42:32.853Z,21.05
2023-03-10T22:46:35.370Z,24.52
2023-03-10T22:50:40.496Z,32.33
2023-03-10T22:54:43.435Z,28.50
2023-03-10T22:58:46.043Z,22.13
2023-03-10T23:02:50.480Z,24.45
2023-03-10T23:06:52.692Z,26.02
2023-03-10T23:10:55.291Z,26.25
2023-03-10T23:14:57.739Z,31.42
2023-03-10T23:19:00.887Z,30.25
2023-03-10T23:23:06.200Z,21.70
2023-03-10T23:27:08.398Z,25.80
2023-03-10T23:31:15.653Z,31.52
2023-03-10T23:35:22.215Z,34.85
2023-03-10T23:39:25.195Z,27.90
2023-03-10T23:43:28.049Z,27.88
2023-03-10T23:47:30.200Z,28.05
2023-03-10T23:51:32.433Z,31.77
2023-03-10T23:55:37.809Z,16.38
2023-03-10T23:59:41.764Z,30.67
